createdAt,value
2019-02-06T00:00:45.923Z,28.27
2019-02-06T00:04:53.048Z,30.73
2019-02-06T00:09:00.663Z,29.13
2019-02-06T00:13:09.754Z,29.07
2019-02-06T00:17:16.766Z,32.97
2019-02-06T00:21:23.777Z,32.83
2019-02-06T00:25:30.934Z,27.80
2019-02-06T00:29:37.749Z,30.80
2019-02-06T00:33:44.801Z,26.40
2019-02-06T00:37:51.693Z,27.17
2019-02-06T00:41:58.675Z,26.27
2019-02-06T00:46:05.868Z,34.63
2019-02-06T00:50:14.595Z,28.83
2019-02-06T00:54:24.910Z,30.47
2019-02-06T00:58:31.785Z,30.43
2019-02-06T01:02:38.600Z,31.00
2019-02-06T01:06:45.415Z,31.83
2019-02-06T01:10:52.376Z,31.80
2019-02-06T01:14:59.564Z,28.27
2019-02-06T01:19:07.109Z,29.97
2019-02-06T01:23:16.127Z,28.07
2019-02-06T01:27:22.615Z,31.87
2019-02-06T01:31:31.833Z,28.73
2019-02-06T01:35:49.246Z,31.60
2019-02-06T01:39:47.227Z,29.20
2019-02-06T01:43:54.096Z,30.13
2019-02-06T01:48:00.953Z,31.33
2019-02-06T01:52:08.902Z,28.87
2019-02-06T01:56:17.472Z,29.17
2019-02-06T02:00:25.651Z,31.93
2019-02-06T02:04:36.067Z,29.43
2019-02-06T02:08:57.685Z,34.97
2019-02-06T02:13:05.120Z,37.07
2019-02-06T04:43:48.955Z,35.00
2019-02-06T04:47:56.247Z,37.10
2019-02-06T04:52:03.363Z,36.57
2019-02-06T04:56:10.251Z,32.57
2019-02-06T05:00:23.629Z,34.57
2019-02-06T05:04:30.546Z,41.87
2019-02-06T05:08:38.094Z,34.47
2019-02-06T05:12:45.182Z,33.70
2019-02-06T05:16:52.131Z,28.93
2019-02-06T05:20:58.997Z,36.97
2019-02-06T05:25:06.585Z,33.27
2019-02-06T05:29:13.682Z,31.27
2019-02-06T05:33:20.791Z,35.67
2019-02-06T05:37:32.287Z,35.40
2019-02-06T05:41:36.527Z,36.30
2019-02-06T05:45:46.143Z,38.97
2019-02-06T05:49:53.027Z,42.50
2019-02-06T05:54:00.653Z,39.00
2019-02-06T05:58:09.418Z,39.77
2019-02-06T06:02:16.376Z,51.70
2019-02-06T06:06:23.225Z,39.73
2019-02-06T06:10:30.143Z,39.80
2019-02-06T06:14:36.993Z,36.90
2019-02-06T06:18:43.838Z,39.67
2019-02-06T06:22:51.032Z,33.90
2019-02-06T06:26:57.871Z,35.10
2019-02-06T06:31:04.754Z,36.43
2019-02-06T06:35:12.972Z,36.37
2019-02-06T06:39:20.051Z,33.80
2019-02-06T06:43:26.932Z,39.33
2019-02-06T06:47:33.856Z,36.47
2019-02-06T06:51:40.717Z,47.20
2019-02-06T06:55:47.600Z,36.70
2019-02-06T06:59:55.718Z,41.83
2019-02-06T07:04:02.972Z,35.27
2019-02-06T07:08:13.383Z,38.87
2019-02-06T07:12:18.650Z,35.27
2019-02-06T07:16:26.455Z,34.97
2019-02-06T07:20:33.848Z,37.73
2019-02-06T07:24:41.063Z,34.80
2019-02-06T07:28:48.060Z,34.73
2019-02-06T07:32:55.034Z,35.53
2019-02-06T07:37:01.944Z,38.40
2019-02-06T07:41:08.811Z,38.80
2019-02-06T07:45:16.521Z,44.13
2019-02-06T07:49:23.661Z,35.30
2019-02-06T07:53:30.691Z,40.20
2019-02-06T07:57:37.711Z,40.63
2019-02-06T08:01:44.627Z,38.73
2019-02-06T08:05:51.619Z,37.87
2019-02-06T08:09:58.506Z,36.73
2019-02-06T08:14:05.573Z,37.73
2019-02-06T08:18:12.492Z,36.33
2019-02-06T08:22:19.421Z,41.63
2019-02-06T08:26:26.360Z,41.70
2019-02-06T08:30:41.439Z,37.73
2019-02-06T08:34:48.374Z,38.20
2019-02-06T08:38:55.790Z,39.13
2019-02-06T08:43:03.032Z,38.70
2019-02-06T08:47:09.994Z,36.57
2019-02-06T08:51:16.890Z,35.67
2019-02-06T08:55:26.680Z,34.97
2019-02-06T08:59:36.173Z,38.63
2019-02-06T09:03:42.580Z,36.97
2019-02-06T09:07:49.508Z,36.13
2019-02-06T09:11:56.393Z,33.63
2019-02-06T09:16:03.252Z,35.43
2019-02-06T09:20:14.829Z,35.90
2019-02-06T09:24:23.814Z,35.70
2019-02-06T09:28:32.270Z,38.37
2019-02-06T09:32:40.224Z,34.83
2019-02-06T09:36:47.187Z,35.90
2019-02-06T09:40:54.186Z,37.57
2019-02-06T09:45:01.145Z,35.37
2019-02-06T09:49:08.037Z,35.70
2019-02-06T09:53:16.434Z,37.80
2019-02-06T09:57:25.000Z,36.87
2019-02-06T10:01:31.988Z,37.93
2019-02-06T10:05:38.808Z,37.97
2019-02-06T10:09:45.668Z,37.53
2019-02-06T10:13:52.976Z,34.10
2019-02-06T10:18:00.842Z,37.03
2019-02-06T10:22:07.681Z,37.00
2019-02-06T10:26:14.548Z,36.00
2019-02-06T10:30:35.147Z,35.13
2019-02-06T10:34:42.095Z,35.30
2019-02-06T10:38:49.003Z,36.30
2019-02-06T10:42:55.980Z,37.40
2019-02-06T10:47:02.865Z,35.07
2019-02-06T10:51:10.437Z,36.60
2019-02-06T10:55:17.965Z,35.60
2019-02-06T10:59:25.987Z,35.50
2019-02-06T11:03:32.928Z,33.90
2019-02-06T11:07:39.867Z,35.07
2019-02-06T11:11:46.804Z,37.40
2019-02-06T11:15:53.857Z,36.50
2019-02-06T11:20:01.165Z,34.93
2019-02-06T11:24:10.058Z,39.00
2019-02-06T11:28:17.970Z,34.17
2019-02-06T11:32:26.468Z,42.07
2019-02-06T11:36:33.371Z,42.57
2019-02-06T11:40:40.318Z,37.67
2019-02-06T11:44:47.684Z,35.80
2019-02-06T11:48:55.795Z,38.50
2019-02-06T11:53:04.903Z,39.60
2019-02-06T11:57:12.077Z,36.20
2019-02-06T12:01:28.934Z,34.37
2019-02-06T12:05:35.935Z,37.43
2019-02-06T12:09:42.956Z,34.13
2019-02-06T12:13:49.952Z,36.23
2019-02-06T12:17:59.350Z,38.67
2019-02-06T12:22:06.871Z,33.67
2019-02-06T12:26:14.402Z,39.40
2019-02-06T12:30:26.846Z,39.83
2019-02-06T12:34:33.882Z,36.13
2019-02-06T12:38:52.764Z,37.40
2019-02-06T12:42:50.922Z,37.67
2019-02-06T12:46:59.230Z,36.87
2019-02-06T12:51:06.320Z,36.10
2019-02-06T12:55:19.620Z,39.43
2019-02-06T12:59:26.656Z,34.40
2019-02-06T13:03:33.895Z,35.60
2019-02-06T13:07:40.989Z,34.27
2019-02-06T13:11:48.186Z,33.67
2019-02-06T13:15:55.175Z,33.37
2019-02-06T13:20:03.479Z,36.97
2019-02-06T13:24:10.797Z,34.70
2019-02-06T13:28:17.723Z,36.30
2019-02-06T13:32:24.969Z,34.03
2019-02-06T13:36:32.107Z,34.17
2019-02-06T13:40:45.738Z,34.40
2019-02-06T13:44:48.036Z,35.50
2019-02-06T13:48:55.126Z,35.37
2019-02-06T13:53:02.490Z,32.10
2019-02-06T13:57:09.710Z,33.03
2019-02-06T14:01:25.271Z,34.83
2019-02-06T14:05:30.316Z,32.60
2019-02-06T14:09:39.291Z,34.33
2019-02-06T14:13:46.218Z,35.33
2019-02-06T14:17:54.615Z,33.00
2019-02-06T14:22:05.511Z,35.30
2019-02-06T14:26:37.835Z,33.97
2019-02-06T14:31:54.019Z,29.93
2019-02-06T14:37:08.596Z,32.10
2019-02-06T14:41:45.172Z,29.13
2019-02-06T14:46:30.873Z,26.60
2019-02-06T14:51:47.806Z,26.80
2019-02-06T14:56:59.618Z,29.00
2019-02-06T15:01:42.034Z,24.67
2019-02-06T15:06:52.565Z,29.50
2019-02-06T15:11:29.043Z,25.90
2019-02-06T15:16:39.148Z,30.27
2019-02-06T15:21:31.714Z,29.50
2019-02-06T15:26:20.394Z,31.97
2019-02-06T15:31:19.717Z,33.00
2019-02-06T15:36:39.718Z,30.80
2019-02-06T15:41:30.481Z,29.17
2019-02-06T15:46:30.449Z,28.87
2019-02-06T15:51:42.329Z,26.30
2019-02-06T15:56:39.518Z,30.90
2019-02-06T16:01:31.588Z,32.43
2019-02-06T16:06:41.695Z,25.67
2019-02-06T16:12:16.885Z,29.13
2019-02-06T16:17:38.846Z,30.57
2019-02-06T16:22:24.534Z,29.97
2019-02-06T16:27:20.027Z,29.03
2019-02-06T16:32:30.237Z,33.57
2019-02-06T16:37:39.863Z,34.27
2019-02-06T16:42:49.292Z,35.07
2019-02-06T16:48:07.785Z,35.73
2019-02-06T16:53:21.247Z,34.80
2019-02-06T16:58:19.844Z,33.90
2019-02-06T17:03:23.220Z,73.40
2019-02-06T17:08:38.342Z,41.00
2019-02-06T17:13:55.523Z,41.73
2019-02-06T17:18:44.512Z,39.63
2019-02-06T17:24:01.536Z,41.93
2019-02-06T17:29:01.696Z,33.87
2019-02-06T17:34:15.490Z,36.97
2019-02-06T17:38:55.547Z,34.03
2019-02-06T17:43:54.635Z,33.67
2019-02-06T17:48:44.602Z,32.23
2019-02-06T17:53:47.638Z,65.80
2019-02-06T17:58:01.076Z,35.87
2019-02-06T18:02:08.324Z,35.90
2019-02-06T18:06:17.787Z,33.57
2019-02-06T18:10:24.859Z,33.97
2019-02-06T18:14:33.832Z,36.20
2019-02-06T18:18:40.801Z,37.13
2019-02-06T18:22:47.682Z,35.80
2019-02-06T18:26:55.909Z,38.40
2019-02-06T18:31:02.817Z,37.00
2019-02-06T18:35:10.722Z,40.77
2019-02-06T18:39:18.154Z,32.43
2019-02-06T18:43:25.125Z,33.63
2019-02-06T18:47:32.007Z,40.13
2019-02-06T18:51:39.091Z,36.80
2019-02-06T18:55:46.972Z,34.43
2019-02-06T18:59:54.104Z,38.33
2019-02-06T19:04:03.085Z,36.80
2019-02-06T19:08:10.286Z,38.03
2019-02-06T19:12:20.136Z,39.97
2019-02-06T19:16:27.071Z,41.43
2019-02-06T19:20:35.784Z,41.03
2019-02-06T19:24:43.484Z,39.47
2019-02-06T19:28:50.605Z,38.70
2019-02-06T19:32:57.849Z,42.93
2019-02-06T19:37:04.923Z,41.13
2019-02-06T19:41:11.878Z,45.20
2019-02-06T19:45:19.324Z,45.43
2019-02-06T19:49:26.510Z,42.63
2019-02-06T19:53:33.473Z,43.27
2019-02-06T19:57:42.074Z,46.97
2019-02-06T20:01:49.170Z,40.50
2019-02-06T20:05:56.575Z,46.37
2019-02-06T20:10:06.815Z,48.50
2019-02-06T20:14:14.279Z,46.10
2019-02-06T20:18:21.199Z,46.33
2019-02-06T20:22:29.509Z,43.00
2019-02-06T20:26:36.643Z,43.27
2019-02-06T20:30:44.793Z,49.60
2019-02-06T20:34:51.846Z,47.20
2019-02-06T20:38:59.024Z,41.50
2019-02-06T20:43:06.481Z,44.23
2019-02-06T20:47:13.600Z,42.20
2019-02-06T20:51:20.874Z,46.37
2019-02-06T20:55:28.188Z,46.73
2019-02-06T20:59:35.195Z,45.47
2019-02-06T21:03:42.404Z,43.50
2019-02-06T21:07:49.513Z,46.00
2019-02-06T21:11:56.885Z,46.10
2019-02-06T21:16:06.161Z,42.93
2019-02-06T21:20:18.854Z,45.23
2019-02-06T21:24:34.150Z,43.70
2019-02-06T21:28:41.200Z,45.83
2019-02-06T21:32:48.453Z,43.93
2019-02-06T21:37:13.864Z,41.90
2019-02-06T21:41:20.887Z,51.90
2019-02-06T21:45:27.775Z,48.00
2019-02-06T21:49:36.671Z,45.00
2019-02-06T21:53:44.147Z,48.50
2019-02-06T21:57:51.703Z,50.17
2019-02-06T22:01:58.873Z,45.67
2019-02-06T22:06:06.309Z,47.97
2019-02-06T22:10:15.050Z,47.27
2019-02-06T22:14:22.184Z,47.90
2019-02-06T22:18:29.368Z,47.03
2019-02-06T22:22:36.569Z,47.07
2019-02-06T22:26:47.479Z,45.37
2019-02-06T22:30:54.538Z,43.77
2019-02-06T22:35:05.378Z,48.70
2019-02-06T22:39:15.177Z,49.57
2019-02-06T22:43:22.204Z,44.83
2019-02-06T22:47:29.632Z,49.63
2019-02-06T22:51:36.554Z,51.97
2019-02-06T22:55:43.570Z,52.30
2019-02-06T22:59:50.587Z,48.57
2019-02-06T23:03:57.669Z,51.87
2019-02-06T23:08:05.808Z,53.43
2019-02-06T23:12:13.019Z,54.17
2019-02-06T23:16:21.452Z,53.20
2019-02-06T23:20:28.614Z,53.27
2019-02-06T23:24:35.509Z,54.10
2019-02-06T23:28:43.014Z,55.30
2019-02-06T23:32:50.015Z,56.10
2019-02-06T23:36:57.003Z,51.57
2019-02-06T23:41:04.349Z,52.40
2019-02-06T23:45:11.718Z,51.73
2019-02-06T23:49:18.986Z,47.40
2019-02-06T23:53:25.820Z,55.50
2019-02-06T23:57:32.707Z,50.97
